Terminal Aerodrome Forecast
Issued by NWS

Home | Current Version | Previous Version | Text Only | Print | Product List | Glossary On
Versions: 1 2 3 4 5 6 7 8 9 10 11 12 13 14 15 16 17 18 19 20 21 22 23 24 25 26 27 28 29
000
FTUS41 KBUF 272300 CCA
TAFJHW
TAF COR
KJHW 272359Z 2800/2824 25010KT 2SM -SHSN OVC008
     FM280100 28010KT 3SM -SHSN OVC015
     FM280200 31012KT 1SM -SHSN OVC008
     FM280500 30010KT 3SM -SHSN OVC015
     FM281300 28008KT P6SM VCSH BKN025
     FM281700 26008KT P6SM BKN040
      AMD LTD TO CLD VIS AND WIND=

USA.gov is the U.S. government's official web portal to all federal, state and local government web resources and services.